Aline, Oklahoma
Current Conditions -  °F | °C
As of 4:55 PM on Friday 31 Oct 2014 (Local Time) from KAVK Reporting Station
Clear Clear  
Wind Chill: 11°   Ceiling: Unl
Heat Index: 11°   Visibility: 10mi
Dew Point: -5°   Wind: 10mph
Humidity: 33%   Direction: 50°NE
Pressure: 30.42"   Gusts: NA
Location:  36.51°N, 98.45°W
Report Text: KAVK 312155Z AUTO 05009KT 10SM CLR 11/M05 A3042 RMK AO2
Loading
Personal Weather Stations






























Interactive Weather Map
Tropical Storm Tracking
New forecast layout! Learn more

10-Day Weather Forecast

Advertisements
Track Severe Weather on mobile